Terminal Aerodrome Forecast
Issued by NWS

Home | Current Version | Previous Version | Text Only | Print | Product List | Glossary On
Versions: 1 2 3 4 5 6 7 8 9 10 11 12 13 14 15 16 17 18
000
FTUS41 KPBZ 211140
TAFBVI
TAF
KBVI 211140Z 2112/2212 25010KT P6SM BKN080
     FM211400 25015G30KT P6SM SCT050
     FM212000 25020G38KT P6SM VCSH BKN100
     FM220100 24010G20KT P6SM VCSH BKN050=

USA.gov is the U.S. government's official web portal to all federal, state and local government web resources and services.